메인 페이지
METAR-TAF:

METAR-TAF

공항 :

카옌로 샹부 공항

카옌, 프랑스령 기아나

위도: 04-50N, 경도: 052-22W, 고도: 105m

현재 날씨관측

예보는 22분 전, 02:30시(UTC)에 발표되었습니다.
동북동7kt
온도 26°C
습도 84%
기압 1013 hPa
시정 10km 이상
고도 1800ft 상공 구름 조금
고도 5800ft 상공 구름 많음

METAR: SOCA 130230Z AUTO 06007KT 9999 FEW018 BKN058 26/23 Q1013 TEMPO 4000 SHRA FEW010TCU

시각: 23:52 (02:52 UTC)

예보

예보는 3 시간 28분 전, 23:24시(UTC)에 발표되었습니다.
예보 대상 시간: 13일 00시부터 13일 24시까지 (UTC)
동북동6kt
시정 10km 이상
고도 2000ft 상공 구름 조금
확률 30% :
일시적
13일 03시부터 13일 15시까지 (UTC)
시정: 4000m
고도 1000ft 상공 구름 조금, 타워링 적운.
소나기

TAF: SOCA 122324Z 1300/1324 06006KT 9999 FEW020 PROB30 TEMPO 1303/1315 4000 SHRA FEW010TCU

4,000개 이상의 공항 관측 자료 및 예보 (METAR 및 TAF 보고).

지도상에서 검색 가능한 기상관측소가 노란 점과 빨간 점으로 표시되어 있습니다.

기상관측소 명을 보려면 표시 위로 마우스를 이동하세요.

날씨 관측과 예보를 보려면 클릭하세요.

지도 변경 : 확대하려면 엑스 표시가 있는 녹색 버튼, 축소하려면 빼기 표시가 있는 녹색 버튼, 다음 페이지의 지도를 보려면 녹색 화살표를 클릭하세요.


METAR-TAF: